createdAt,value
2018-12-26T00:00:35.534Z,101099.75
2018-12-26T00:03:01.911Z,101088.33
2018-12-26T00:05:27.993Z,101092.81
2018-12-26T00:07:54.503Z,101096.41
2018-12-26T00:10:20.518Z,101091.83
2018-12-26T00:12:46.610Z,101098.20
2018-12-26T00:15:12.986Z,101094.77
2018-12-26T00:17:39.257Z,101085.94
2018-12-26T00:20:05.350Z,101086.22
2018-12-26T00:22:31.501Z,101091.20
2018-12-26T00:24:57.840Z,101090.92
2018-12-26T00:27:24.180Z,101083.98
2018-12-26T00:29:50.210Z,101086.77
2018-12-26T00:32:16.302Z,101087.70
2018-12-26T00:34:42.647Z,101092.86
2018-12-26T00:37:09.000Z,101085.73
2018-12-26T00:39:35.374Z,101085.77
2018-12-26T00:42:01.393Z,101084.27
2018-12-26T00:44:27.418Z,101076.51
2018-12-26T00:46:53.440Z,101079.69
2018-12-26T00:49:19.806Z,101094.82
2018-12-26T00:51:45.836Z,101083.30
2018-12-26T00:54:12.202Z,101091.28
2018-12-26T00:56:38.236Z,101072.20
2018-12-26T00:59:04.342Z,101087.61
2018-12-26T01:01:30.814Z,101089.62
2018-12-26T01:03:57.149Z,101089.34
2018-12-26T01:06:23.249Z,101084.27
2018-12-26T01:08:49.584Z,101089.78
2018-12-26T01:11:15.626Z,101087.14
2018-12-26T01:13:41.995Z,101091.34
2018-12-26T01:16:08.298Z,101087.14
2018-12-26T01:18:34.389Z,101089.78
2018-12-26T01:21:00.850Z,101077.67
2018-12-26T01:23:26.880Z,101074.30
2018-12-26T01:25:53.221Z,101077.02
2018-12-26T01:28:19.245Z,101071.02
2018-12-26T01:30:45.378Z,101083.20
2018-12-26T01:33:11.719Z,101084.67
2018-12-26T01:35:37.806Z,101088.61
2018-12-26T01:38:03.815Z,101070.58
2018-12-26T01:40:29.935Z,101063.23
2018-12-26T01:42:56.322Z,101066.55
2018-12-26T01:45:22.371Z,101064.27
2018-12-26T01:47:48.449Z,101069.90
2018-12-26T01:50:14.741Z,101063.58
2018-12-26T01:52:40.789Z,101058.80
2018-12-26T01:55:07.171Z,101065.14
2018-12-26T01:57:33.180Z,101062.71
2018-12-26T01:59:59.297Z,101062.03
2018-12-26T02:02:25.380Z,101065.98
2018-12-26T02:04:51.478Z,101073.27
2018-12-26T02:07:17.577Z,101071.30
2018-12-26T02:09:43.614Z,101068.77
2018-12-26T02:12:09.690Z,101078.05
2018-12-26T02:14:35.955Z,101077.89
2018-12-26T02:17:01.991Z,101079.42
2018-12-26T02:19:28.078Z,101081.12
2018-12-26T02:21:54.370Z,101084.98
2018-12-26T02:24:20.698Z,101086.78
2018-12-26T02:26:46.728Z,101084.96
2018-12-26T02:29:12.750Z,101080.23
2018-12-26T02:31:38.768Z,101079.14
2018-12-26T02:34:05.050Z,101073.36
2018-12-26T02:36:31.459Z,101068.92
2018-12-26T02:38:57.535Z,101066.05
2018-12-26T02:41:23.647Z,101066.83
2018-12-26T02:43:49.994Z,101067.28
2018-12-26T02:46:16.042Z,101062.33
2018-12-26T02:48:42.150Z,101063.38
2018-12-26T02:51:08.262Z,101058.70
2018-12-26T02:53:34.347Z,101053.78
2018-12-26T02:56:00.382Z,101058.04
2018-12-26T02:58:26.479Z,101058.53
2018-12-26T03:00:52.574Z,101052.45
2018-12-26T03:03:18.599Z,101046.53
2018-12-26T03:05:44.689Z,101043.77
2018-12-26T03:08:10.699Z,101044.27
2018-12-26T03:10:36.726Z,101044.23
2018-12-26T03:13:02.817Z,101047.12
2018-12-26T03:15:28.818Z,101044.31
2018-12-26T03:17:54.837Z,101046.62
2018-12-26T03:20:20.922Z,101044.23
2018-12-26T03:22:47.215Z,101041.02
2018-12-26T03:25:13.301Z,101043.70
2018-12-26T03:27:39.749Z,101050.36
2018-12-26T03:30:05.753Z,101051.27
2018-12-26T03:32:31.850Z,101052.45
2018-12-26T03:34:57.967Z,101054.82
2018-12-26T03:37:24.090Z,101059.22
2018-12-26T03:39:50.234Z,101043.72
2018-12-26T03:42:16.294Z,101041.06
2018-12-26T03:44:42.327Z,101033.89
2018-12-26T03:47:08.489Z,101035.05
2018-12-26T03:49:34.607Z,101035.69
2018-12-26T03:52:02.205Z,101023.52
2018-12-26T03:54:28.478Z,101023.30
2018-12-26T03:56:54.573Z,101023.94
2018-12-26T03:59:20.609Z,101012.12
2018-12-26T04:01:46.643Z,101018.43
2018-12-26T04:04:12.973Z,100998.96
2018-12-26T04:06:39.091Z,101000.30
2018-12-26T04:09:05.117Z,101013.27
2018-12-26T04:11:31.203Z,101017.75
2018-12-26T04:13:57.227Z,101025.24
2018-12-26T04:16:23.329Z,101026.79
2018-12-26T04:18:49.679Z,101031.40
2018-12-26T04:21:15.771Z,101021.02
2018-12-26T04:23:41.833Z,101029.53
2018-12-26T04:26:07.931Z,101031.45
2018-12-26T04:28:34.305Z,101021.95
2018-12-26T04:31:00.373Z,101029.39
2018-12-26T04:33:26.743Z,101029.23
2018-12-26T04:35:53.078Z,101031.16
2018-12-26T04:38:19.388Z,101016.72
2018-12-26T04:40:45.491Z,101020.02
2018-12-26T04:43:11.590Z,101019.89
2018-12-26T04:45:37.966Z,101024.88
2018-12-26T04:48:04.081Z,101026.04
2018-12-26T04:50:30.177Z,101027.77
2018-12-26T04:52:56.333Z,101035.59
2018-12-26T04:55:22.419Z,101038.83
2018-12-26T04:57:48.517Z,101041.92
2018-12-26T05:00:14.538Z,101051.11
2018-12-26T05:02:40.937Z,101046.77
2018-12-26T05:05:07.299Z,101055.95
2018-12-26T05:07:33.666Z,101058.45
2018-12-26T05:09:59.689Z,101055.26
2018-12-26T05:12:25.786Z,101060.86
2018-12-26T05:14:52.154Z,101049.36
2018-12-26T05:17:20.490Z,101056.26
2018-12-26T05:19:46.570Z,101051.73
2018-12-26T05:22:13.321Z,101045.45
2018-12-26T05:24:39.403Z,101044.00
2018-12-26T05:27:05.420Z,101031.75
2018-12-26T05:29:31.787Z,101029.47
2018-12-26T05:31:57.859Z,101017.05
2018-12-26T05:34:24.229Z,101018.55
2018-12-26T05:36:50.326Z,101017.60
2018-12-26T05:39:16.405Z,101014.11
2018-12-26T05:41:42.490Z,101004.21
2018-12-26T05:44:08.525Z,101007.92
2018-12-26T05:46:34.982Z,101011.23
2018-12-26T05:49:01.022Z,101010.86
2018-12-26T05:51:27.112Z,101002.42
2018-12-26T05:53:53.131Z,100999.54
2018-12-26T05:56:19.160Z,101003.36
2018-12-26T05:58:45.205Z,101004.55
2018-12-26T06:01:11.212Z,100986.63
2018-12-26T06:03:37.321Z,100998.31
2018-12-26T06:06:03.690Z,101000.33
2018-12-26T06:08:30.219Z,101004.66
2018-12-26T06:10:56.298Z,100994.27
2018-12-26T06:13:22.351Z,100986.47
2018-12-26T06:15:48.741Z,100981.03
2018-12-26T06:18:14.844Z,100970.27
2018-12-26T06:20:40.960Z,100975.80
2018-12-26T06:23:07.249Z,100971.06
2018-12-26T06:25:33.350Z,100979.14
2018-12-26T06:27:59.745Z,100972.99
2018-12-26T06:30:26.109Z,100961.19
2018-12-26T06:32:52.205Z,100957.00
2018-12-26T06:35:18.333Z,100944.53
2018-12-26T06:37:44.353Z,100946.97
2018-12-26T06:40:10.473Z,100952.69
2018-12-26T06:42:36.512Z,100949.14
2018-12-26T06:45:02.938Z,100954.61
2018-12-26T06:47:28.961Z,100951.63
2018-12-26T06:49:54.989Z,100957.30
2018-12-26T06:52:21.084Z,100957.92
2018-12-26T06:54:47.264Z,100964.30
2018-12-26T06:57:13.361Z,100956.89
2018-12-26T06:59:39.377Z,100963.16
2018-12-26T07:02:05.486Z,100968.08
2018-12-26T07:04:31.890Z,100971.97
2018-12-26T07:06:58.270Z,100975.09
2018-12-26T07:09:24.376Z,100977.45
2018-12-26T07:11:50.462Z,100979.14
2018-12-26T07:14:16.535Z,100999.06
2018-12-26T07:16:42.889Z,101000.23
2018-12-26T07:19:08.948Z,100988.22
2018-12-26T07:21:35.268Z,100986.22
2018-12-26T07:24:01.606Z,100980.98
2018-12-26T07:26:28.105Z,100993.81
2018-12-26T07:28:54.110Z,100992.24
2018-12-26T07:31:20.129Z,101000.36
2018-12-26T07:33:46.131Z,100994.58
2018-12-26T07:36:12.183Z,101001.69
2018-12-26T07:38:38.261Z,101008.52
2018-12-26T07:41:04.341Z,101005.55
2018-12-26T07:43:30.374Z,101014.77
2018-12-26T07:45:56.459Z,101021.44
2018-12-26T07:48:22.800Z,101005.19
2018-12-26T07:50:48.816Z,101006.14
2018-12-26T07:53:14.830Z,101011.84
2018-12-26T07:55:40.860Z,101025.06
2018-12-26T07:58:07.197Z,101016.26
2018-12-26T08:00:33.229Z,101018.59
2018-12-26T08:02:59.347Z,101011.67
2018-12-26T08:05:25.638Z,101010.77
2018-12-26T08:07:57.519Z,101007.33
2018-12-26T08:10:25.137Z,101013.14
2018-12-26T08:12:51.237Z,101005.75
2018-12-26T08:15:17.331Z,101004.61
2018-12-26T08:17:43.359Z,101006.00
2018-12-26T08:20:09.684Z,101005.88
2018-12-26T08:22:35.775Z,101005.65
2018-12-26T08:25:04.636Z,101010.44
2018-12-26T08:27:30.932Z,101007.18
2018-12-26T08:29:57.037Z,101012.21
2018-12-26T08:32:23.146Z,101008.44
2018-12-26T08:34:49.514Z,101016.25
2018-12-26T08:37:15.840Z,101005.48
2018-12-26T08:39:42.227Z,101014.63
2018-12-26T08:42:08.349Z,101010.43
2018-12-26T08:44:34.438Z,101014.09
2018-12-26T08:47:00.769Z,101008.70
2018-12-26T08:49:27.103Z,101006.18
2018-12-26T08:51:53.390Z,101010.27
2018-12-26T08:54:19.861Z,100996.54
2018-12-26T08:56:46.237Z,101011.89
2018-12-26T08:59:12.522Z,101010.34
2018-12-26T09:01:38.553Z,101015.42
2018-12-26T09:04:04.906Z,101002.05
2018-12-26T09:06:31.002Z,101024.89
2018-12-26T09:08:57.032Z,101011.95
2018-12-26T09:11:23.378Z,101014.60
2018-12-26T09:13:53.687Z,101012.66
2018-12-26T09:16:20.003Z,101018.11
2018-12-26T09:18:46.052Z,101013.11
2018-12-26T09:21:12.269Z,101023.59
2018-12-26T09:23:42.938Z,101021.58
2018-12-26T09:26:12.710Z,101014.64
2018-12-26T09:28:43.745Z,101026.70
2018-12-26T09:31:07.110Z,101021.20
2018-12-26T09:33:33.210Z,101025.88
2018-12-26T09:35:59.622Z,101028.08
2018-12-26T09:38:25.813Z,101017.33
2018-12-26T09:40:52.217Z,101014.55
2018-12-26T09:43:18.341Z,101002.95
2018-12-26T09:45:44.857Z,101003.61
2018-12-26T09:48:10.972Z,101005.12
2018-12-26T09:50:37.069Z,101001.88
2018-12-26T09:53:03.429Z,100998.83
2018-12-26T09:55:29.517Z,101003.39
2018-12-26T09:57:55.611Z,101001.59
2018-12-26T10:00:21.938Z,100999.66
2018-12-26T10:02:48.042Z,101012.58
2018-12-26T10:05:14.055Z,101022.06
2018-12-26T10:07:40.166Z,101018.28
2018-12-26T10:10:06.532Z,101016.91
2018-12-26T10:12:32.847Z,101021.99
2018-12-26T10:14:58.930Z,101019.69
2018-12-26T10:17:25.023Z,101008.23
2018-12-26T10:19:51.381Z,101009.69
2018-12-26T10:22:17.748Z,101009.21
2018-12-26T10:24:43.836Z,101011.98
2018-12-26T10:27:10.187Z,101014.98
2018-12-26T10:29:36.278Z,101003.59
2018-12-26T10:32:03.156Z,101001.58
2018-12-26T10:34:29.261Z,101001.54
2018-12-26T10:36:55.565Z,100996.89
2018-12-26T10:39:21.565Z,100993.20
2018-12-26T10:41:47.674Z,100994.34
2018-12-26T10:44:13.730Z,100989.25
2018-12-26T10:46:40.302Z,100995.22
2018-12-26T10:49:06.736Z,100994.77
2018-12-26T10:51:32.890Z,100978.44
2018-12-26T10:53:59.226Z,100985.06
2018-12-26T10:56:25.628Z,100980.52
2018-12-26T10:58:51.679Z,100973.91
2018-12-26T11:01:17.784Z,100976.23
2018-12-26T11:03:44.127Z,100965.67
2018-12-26T11:06:10.199Z,100971.38
2018-12-26T11:08:36.558Z,100972.45
2018-12-26T11:11:02.607Z,100962.87
2018-12-26T11:13:28.714Z,100959.45
2018-12-26T11:15:55.045Z,100957.64
2018-12-26T11:18:21.143Z,100952.45
2018-12-26T11:20:47.169Z,100949.73
2018-12-26T11:23:13.534Z,100955.59
2018-12-26T11:25:39.692Z,100953.16
2018-12-26T11:28:08.360Z,100960.33
2018-12-26T11:30:34.480Z,100958.55
2018-12-26T11:33:01.485Z,100944.72
2018-12-26T11:35:27.713Z,100940.76
2018-12-26T11:37:53.784Z,100942.77
2018-12-26T11:40:19.858Z,100938.67
2018-12-26T11:42:46.227Z,100933.66
2018-12-26T11:45:12.274Z,100937.05
2018-12-26T11:47:38.670Z,100938.87
2018-12-26T11:50:05.615Z,100930.08
2018-12-26T11:52:31.688Z,100927.92
2018-12-26T11:54:57.986Z,100927.56
2018-12-26T11:57:24.383Z,100926.45
2018-12-26T11:59:50.482Z,100936.26
2018-12-26T12:02:20.565Z,100930.50
2018-12-26T12:04:44.293Z,100916.03
2018-12-26T12:07:10.377Z,100912.63
2018-12-26T12:09:36.711Z,100909.09
2018-12-26T12:12:03.084Z,100906.20
2018-12-26T12:14:29.254Z,100903.75
2018-12-26T12:16:55.606Z,100908.64
2018-12-26T12:19:21.719Z,100905.83
2018-12-26T12:21:48.049Z,100914.33
2018-12-26T12:24:14.125Z,100915.11
2018-12-26T12:26:40.235Z,100915.32
2018-12-26T12:29:06.325Z,100927.56
2018-12-26T12:31:34.503Z,100920.68
2018-12-26T12:34:00.676Z,100925.59
2018-12-26T12:36:26.774Z,100924.48
2018-12-26T12:38:52.870Z,100923.08
2018-12-26T12:41:18.977Z,100914.03
2018-12-26T12:43:45.081Z,100920.13
2018-12-26T12:46:14.143Z,100917.41
2018-12-26T12:48:40.526Z,100922.28
2018-12-26T12:51:06.683Z,100920.83
2018-12-26T12:53:33.360Z,100920.98
2018-12-26T12:55:59.459Z,100915.36
2018-12-26T12:58:25.638Z,100907.63
2018-12-26T13:00:51.816Z,100904.06
2018-12-26T13:03:18.236Z,100903.42
2018-12-26T13:05:44.373Z,100901.77
2018-12-26T13:08:10.749Z,100907.89
2018-12-26T13:10:37.169Z,100910.38
2018-12-26T13:13:03.391Z,100905.37
2018-12-26T13:15:29.841Z,100913.05
2018-12-26T13:17:55.918Z,100909.34
2018-12-26T13:20:22.003Z,100910.63
2018-12-26T13:22:48.083Z,100907.97
2018-12-26T13:25:14.502Z,100913.80
2018-12-26T13:27:40.602Z,100915.17
2018-12-26T13:30:07.090Z,100915.60
2018-12-26T13:32:33.166Z,100922.13
2018-12-26T13:34:59.598Z,100924.69
2018-12-26T13:37:25.756Z,100919.13
2018-12-26T13:39:52.088Z,100923.84
2018-12-26T13:42:18.500Z,100921.81
2018-12-26T13:44:44.665Z,100920.53
2018-12-26T13:47:10.757Z,100928.03
2018-12-26T13:49:37.152Z,100926.66
2018-12-26T13:52:03.517Z,100933.76
2018-12-26T13:54:30.198Z,100928.35
2018-12-26T13:56:56.590Z,100933.53
2018-12-26T13:59:23.015Z,100929.02
2018-12-26T14:01:49.358Z,100925.23
2018-12-26T14:04:15.451Z,100925.53
2018-12-26T14:06:41.553Z,100931.22
2018-12-26T14:09:07.922Z,100937.12
2018-12-26T14:11:34.236Z,100936.31
2018-12-26T14:14:00.269Z,100943.45
2018-12-26T14:16:26.367Z,100938.33
2018-12-26T14:18:52.388Z,100939.20
2018-12-26T14:21:18.680Z,100934.41
2018-12-26T14:23:44.777Z,100921.77
2018-12-26T14:26:11.322Z,100936.06
2018-12-26T14:28:37.541Z,100935.88
2018-12-26T14:31:03.861Z,100930.75
2018-12-26T14:33:30.257Z,100933.87
2018-12-26T14:35:56.337Z,100933.38
2018-12-26T14:38:22.707Z,100931.41
2018-12-26T14:40:49.025Z,100924.20
2018-12-26T14:43:15.153Z,100931.22
2018-12-26T14:45:41.542Z,100924.95
2018-12-26T14:48:07.648Z,100925.39
2018-12-26T14:50:34.018Z,100921.14
2018-12-26T14:53:00.338Z,100924.28
2018-12-26T14:55:26.726Z,100928.97
2018-12-26T14:57:52.843Z,100930.69
2018-12-26T15:00:20.048Z,100920.25
2018-12-26T15:02:46.440Z,100921.26
2018-12-26T15:05:12.522Z,100915.86
2018-12-26T15:07:38.886Z,100920.53
2018-12-26T15:10:07.279Z,100922.66
2018-12-26T15:12:33.374Z,100921.41
2018-12-26T15:14:59.750Z,100917.41
2018-12-26T15:17:25.818Z,100916.79
2018-12-26T15:19:51.922Z,100922.23
2018-12-26T15:22:17.981Z,100925.94
2018-12-26T15:24:44.364Z,100914.38
2018-12-26T15:27:10.757Z,100921.77
2018-12-26T15:29:36.868Z,100919.56
2018-12-26T15:32:02.949Z,100914.27
2018-12-26T15:34:29.041Z,100917.63
2018-12-26T15:36:55.160Z,100918.87
2018-12-26T15:39:21.242Z,100913.62
2018-12-26T15:41:47.529Z,100913.41
2018-12-26T15:44:13.639Z,100910.23
2018-12-26T15:46:39.684Z,100908.36
2018-12-26T15:49:05.761Z,100912.00
2018-12-26T15:51:31.804Z,100907.02
2018-12-26T15:53:58.164Z,100916.23
2018-12-26T15:56:24.543Z,100917.25
2018-12-26T15:58:50.918Z,100923.73
2018-12-26T16:01:18.575Z,100925.13
2018-12-26T16:03:44.661Z,100926.43
2018-12-26T16:06:10.854Z,100927.61
2018-12-26T16:08:37.295Z,100925.06
2018-12-26T16:11:03.412Z,100924.92
2018-12-26T16:13:29.705Z,100930.71
2018-12-26T16:15:55.735Z,100931.70
2018-12-26T16:18:22.097Z,100928.62
2018-12-26T16:20:48.465Z,100926.16
2018-12-26T16:23:14.594Z,100923.57
2018-12-26T16:25:40.733Z,100926.25
2018-12-26T16:28:06.818Z,100928.91
2018-12-26T16:30:32.920Z,100918.15
2018-12-26T16:32:59.336Z,100915.34
2018-12-26T16:35:25.758Z,100916.53
2018-12-26T16:37:51.850Z,100911.72
2018-12-26T16:40:17.939Z,100919.95
2018-12-26T16:42:44.269Z,100920.78
2018-12-26T16:45:10.365Z,100928.62
2018-12-26T16:47:36.790Z,100924.23
2018-12-26T16:50:03.083Z,100930.38
2018-12-26T16:52:29.474Z,100936.75
2018-12-26T16:54:55.555Z,100936.98
2018-12-26T16:57:22.035Z,100935.30
2018-12-26T16:59:48.154Z,100932.94
2018-12-26T17:02:14.181Z,100940.00
2018-12-26T17:04:42.737Z,100942.33
2018-12-26T17:07:07.977Z,100942.95
2018-12-26T17:09:34.034Z,100941.80
2018-12-26T17:12:00.146Z,100944.72
2018-12-26T17:14:26.556Z,100945.62
2018-12-26T17:16:52.886Z,100934.36
2018-12-26T17:19:19.024Z,100945.52
2018-12-26T17:21:45.097Z,100952.56
2018-12-26T17:24:16.514Z,100947.28
2018-12-26T17:26:38.957Z,100953.26
2018-12-26T17:29:05.381Z,100955.64
2018-12-26T17:31:31.454Z,100953.09
2018-12-26T17:33:57.581Z,100950.90
2018-12-26T17:36:25.786Z,100958.97
2018-12-26T17:38:52.355Z,100963.52
2018-12-26T17:41:18.502Z,100962.00
2018-12-26T17:43:44.584Z,100968.70
2018-12-26T17:46:10.591Z,100961.66
2018-12-26T17:48:36.698Z,100962.76
2018-12-26T17:51:04.398Z,100966.81
2018-12-26T17:53:33.213Z,100964.16
2018-12-26T17:56:02.780Z,100967.17
2018-12-26T17:58:28.888Z,100972.22
2018-12-26T18:00:55.245Z,100970.80
2018-12-26T18:03:21.554Z,100975.97
2018-12-26T18:05:49.057Z,100972.13
2018-12-26T18:08:15.477Z,100968.38
2018-12-26T18:10:41.898Z,100968.73
2018-12-26T18:13:09.574Z,100975.61
2018-12-26T18:15:35.654Z,100977.30
2018-12-26T18:18:02.131Z,100974.08
2018-12-26T18:20:28.695Z,100968.87
2018-12-26T18:22:54.838Z,100965.87
2018-12-26T18:25:23.552Z,100961.66
2018-12-26T18:27:49.634Z,100967.13
2018-12-26T18:30:15.638Z,100978.73
2018-12-26T18:32:42.788Z,100975.78
2018-12-26T18:35:09.150Z,100982.32
2018-12-26T18:37:35.172Z,100983.02
2018-12-26T18:40:01.503Z,100986.60
2018-12-26T18:42:27.869Z,100983.05
2018-12-26T18:44:53.901Z,100979.23
2018-12-26T18:47:20.170Z,100975.87
2018-12-26T18:49:46.458Z,100986.07
2018-12-26T18:52:12.581Z,100983.75
2018-12-26T18:54:38.662Z,100984.74
2018-12-26T18:57:04.985Z,100986.41
2018-12-26T18:59:31.115Z,100982.13
2018-12-26T19:01:57.131Z,100990.89
2018-12-26T19:04:23.648Z,100994.55
2018-12-26T19:06:49.758Z,100999.48
2018-12-26T19:09:26.631Z,101007.52
2018-12-26T19:11:47.063Z,101001.42
2018-12-26T19:14:14.899Z,101002.34
2018-12-26T19:16:41.252Z,101003.63
2018-12-26T19:19:07.356Z,101000.98
2018-12-26T19:21:33.504Z,100998.28
2018-12-26T19:23:59.908Z,100993.70
2018-12-26T19:26:25.995Z,100989.61
2018-12-26T19:28:52.369Z,100988.23
2018-12-26T19:31:18.573Z,100991.89
2018-12-26T19:33:44.590Z,100993.67
2018-12-26T19:36:12.626Z,100989.30
2018-12-26T19:38:38.422Z,100991.06
2018-12-26T19:41:04.800Z,100997.77
2018-12-26T19:43:30.824Z,100995.11
2018-12-26T19:45:56.974Z,100993.22
2018-12-26T19:48:23.041Z,100990.16
2018-12-26T19:50:49.362Z,100994.31
2018-12-26T19:53:15.407Z,100996.11
2018-12-26T19:55:41.532Z,100993.51
2018-12-26T19:58:07.562Z,101004.31
2018-12-26T20:00:33.627Z,100994.51
2018-12-26T20:02:59.684Z,100996.43
2018-12-26T20:05:26.021Z,101002.02
2018-12-26T20:07:52.095Z,100993.14
2018-12-26T20:10:21.288Z,100988.89
2018-12-26T20:12:47.654Z,100997.10
2018-12-26T20:15:14.060Z,101004.83
2018-12-26T20:17:40.103Z,101001.22
2018-12-26T20:20:06.210Z,101003.02
2018-12-26T20:22:33.318Z,100997.96
2018-12-26T20:25:02.251Z,101004.88
2018-12-26T20:27:28.293Z,100995.97
2018-12-26T20:29:54.635Z,100994.52
2018-12-26T20:32:20.719Z,100998.43
2018-12-26T20:34:46.839Z,100995.24
2018-12-26T20:37:13.438Z,101001.62
2018-12-26T20:39:39.534Z,100998.73
2018-12-26T20:42:09.519Z,100996.17
2018-12-26T20:44:40.020Z,100990.09
2018-12-26T20:47:06.224Z,100989.99
2018-12-26T20:49:32.412Z,100984.41
2018-12-26T20:51:58.516Z,100982.22
2018-12-26T20:54:25.094Z,100988.53
2018-12-26T20:56:51.528Z,100982.81
2018-12-26T20:59:18.563Z,100984.81
2018-12-26T21:01:45.160Z,100989.69
2018-12-26T21:04:11.239Z,100986.94
2018-12-26T21:06:39.745Z,100988.16
2018-12-26T21:09:05.849Z,100978.23
2018-12-26T21:11:31.971Z,100978.17
2018-12-26T21:13:58.467Z,100981.48
2018-12-26T21:16:24.561Z,100980.48
2018-12-26T21:18:50.653Z,100984.17
2018-12-26T21:21:16.801Z,100976.20
2018-12-26T21:23:44.249Z,100975.54
2018-12-26T21:26:13.971Z,100973.32
2018-12-26T21:28:40.400Z,100973.78
2018-12-26T21:31:06.501Z,100975.61
2018-12-26T21:33:32.870Z,100967.48
2018-12-26T21:35:59.275Z,100980.17
2018-12-26T21:38:25.386Z,100966.75
2018-12-26T21:40:51.763Z,100969.70
2018-12-26T21:43:17.851Z,100965.55
2018-12-26T21:45:43.990Z,100966.09
2018-12-26T21:48:10.353Z,100966.75
2018-12-26T21:50:36.820Z,100968.29
2018-12-26T21:53:03.150Z,100963.91
2018-12-26T21:55:29.817Z,100965.05
2018-12-26T21:57:58.811Z,100967.92
2018-12-26T22:00:25.180Z,100970.81
2018-12-26T22:02:51.607Z,100959.78
2018-12-26T22:05:17.669Z,100966.09
2018-12-26T22:07:43.838Z,100964.12
2018-12-26T22:10:17.947Z,100967.48
2018-12-26T22:12:44.033Z,100968.87
2018-12-26T22:15:11.012Z,100976.13
2018-12-26T22:17:39.791Z,100980.88
2018-12-26T22:20:05.855Z,100970.53
2018-12-26T22:22:32.326Z,100971.11
2018-12-26T22:24:58.436Z,100971.70
2018-12-26T22:27:24.520Z,100966.34
2018-12-26T22:29:51.001Z,100965.45
2018-12-26T22:32:17.094Z,100963.02
2018-12-26T22:34:43.508Z,100967.12
2018-12-26T22:37:09.638Z,100963.91
2018-12-26T22:39:35.665Z,100968.16
2018-12-26T22:42:01.686Z,100962.18
2018-12-26T22:44:28.084Z,100965.76
2018-12-26T22:46:54.709Z,100962.59
2018-12-26T22:49:21.175Z,100960.16
2018-12-26T22:51:47.581Z,100963.05
2018-12-26T22:54:13.667Z,100962.13
2018-12-26T22:56:39.779Z,100961.20
2018-12-26T22:59:05.853Z,100960.68
2018-12-26T23:04:07.072Z,100955.29
2018-12-26T23:06:39.410Z,100959.41
2018-12-26T23:09:05.518Z,100961.94
2018-12-26T23:11:31.613Z,100961.69
2018-12-26T23:13:57.857Z,100953.95
2018-12-26T23:19:07.702Z,100951.47
2018-12-26T23:21:33.897Z,100960.68
2018-12-26T23:23:59.997Z,100958.46
2018-12-26T23:26:30.588Z,100956.61
2018-12-26T23:29:03.034Z,100959.30
2018-12-26T23:31:29.294Z,100966.53
2018-12-26T23:33:55.681Z,100966.06
2018-12-26T23:36:21.875Z,100960.38
2018-12-26T23:38:47.979Z,100962.89
2018-12-26T23:41:14.067Z,100954.05
2018-12-26T23:43:40.074Z,100952.52
2018-12-26T23:46:06.390Z,100954.52
2018-12-26T23:48:32.421Z,100959.40
2018-12-26T23:50:58.503Z,100955.44
2018-12-26T23:53:24.554Z,100955.50
2018-12-26T23:55:50.618Z,100960.86
2018-12-26T23:58:16.752Z,100965.17
